Time,TemperatureF,DewpointF,PressureIn,WindDirection,WindDirectionDegrees,WindSpeedMPH,WindSpeedGustMPH,Humidity,HourlyPrecipIn,Conditions,Clouds,dailyrainin,SoftwareType,DateUTC
2013-07-10 00:10:00,64.3,64.0,30.04,South,180,0.0,0.0,100,0.00,,,0.00,weatherlink.com 1.10,2013-07-10 04:10:00,
2013-07-10 00:25:00,64.3,64.0,30.04,South,180,0.0,0.0,100,0.00,,,0.00,weatherlink.com 1.10,2013-07-10 04:25:00,
2013-07-10 00:40:00,64.2,64.0,30.04,South,180,0.0,0.0,100,0.00,,,0.00,weatherlink.com 1.10,2013-07-10 04:40:00,
2013-07-10 00:55:00,64.2,64.0,30.02,South,180,0.0,0.0,100,0.00,,,0.00,weatherlink.com 1.10,2013-07-10 04:55:00,
2013-07-10 01:10:00,64.1,64.0,30.03,South,180,0.0,0.0,100,0.00,,,0.00,weatherlink.com 1.10,2013-07-10 05:10:00,
2013-07-10 01:25:00,64.1,64.0,30.03,South,179,0.0,0.0,100,0.00,,,0.00,weatherlink.com 1.10,2013-07-10 05:25:00,
2013-07-10 01:40:00,64.1,64.0,30.02,South,180,0.0,1.0,100,0.00,,,0.00,weatherlink.com 1.10,2013-07-10 05:40:00,
2013-07-10 01:55:00,63.9,64.0,30.02,South,172,0.0,1.0,100,0.00,,,0.00,weatherlink.com 1.10,2013-07-10 05:55:00,
2013-07-10 02:10:00,63.9,64.0,30.02,South,174,0.0,1.0,100,0.00,,,0.00,weatherlink.com 1.10,2013-07-10 06:10:00,
2013-07-10 02:25:00,63.7,64.0,30.01,SSE,159,0.0,1.0,100,0.00,,,0.00,weatherlink.com 1.10,2013-07-10 06:25:00,
2013-07-10 02:40:00,63.6,64.0,30.02,South,177,0.0,2.0,100,0.00,,,0.00,weatherlink.com 1.10,2013-07-10 06:40:00,
2013-07-10 02:55:00,63.5,64.0,30.01,WSW,243,0.0,2.0,100,0.00,,,0.00,weatherlink.com 1.10,2013-07-10 06:55:00,
2013-07-10 03:10:00,63.4,63.0,30.00,SSW,200,0.0,1.0,100,0.00,,,0.00,weatherlink.com 1.10,2013-07-10 07:10:00,
2013-07-10 03:25:00,63.3,63.0,30.00,SSE,155,0.0,1.0,100,0.00,,,0.00,weatherlink.com 1.10,2013-07-10 07:25:00,
2013-07-10 03:40:00,63.1,63.0,29.98,SSE,155,0.0,1.0,100,0.00,,,0.00,weatherlink.com 1.10,2013-07-10 07:40:00,
2013-07-10 03:56:00,63.0,63.0,29.98,SSE,156,0.0,1.0,100,0.00,,,0.00,weatherlink.com 1.10,2013-07-10 07:56:00,
2013-07-10 04:11:00,63.1,63.0,29.99,SSE,156,0.0,0.0,100,0.00,,,0.00,weatherlink.com 1.10,2013-07-10 08:11:00,
2013-07-10 04:26:00,63.2,63.0,29.98,SSE,156,0.0,1.0,100,0.00,,,0.00,weatherlink.com 1.10,2013-07-10 08:26:00,
2013-07-10 04:41:00,63.1,63.0,29.99,SSE,157,0.0,1.0,100,0.00,,,0.00,weatherlink.com 1.10,2013-07-10 08:41:00,
2013-07-10 04:56:00,63.1,63.0,29.99,SSE,155,0.0,1.0,100,0.00,,,0.00,weatherlink.com 1.10,2013-07-10 08:56:00,
2013-07-10 05:11:00,63.0,63.0,29.98,SSE,155,0.0,1.0,100,0.00,,,0.00,weatherlink.com 1.10,2013-07-10 09:11:00,
2013-07-10 05:26:00,63.0,63.0,29.99,SSE,155,0.0,1.0,100,0.00,,,0.00,weatherlink.com 1.10,2013-07-10 09:26:00,
2013-07-10 05:41:00,63.0,63.0,29.99,SSE,155,0.0,0.0,100,0.00,,,0.00,weatherlink.com 1.10,2013-07-10 09:41:00,
2013-07-10 05:56:00,63.1,63.0,29.98,South,188,0.0,1.0,100,0.00,,,0.00,weatherlink.com 1.10,2013-07-10 09:56:00,
2013-07-10 06:11:00,63.1,63.0,29.99,South,188,0.0,0.0,100,0.00,,,0.00,weatherlink.com 1.10,2013-07-10 10:11:00,
2013-07-10 06:26:00,63.1,63.0,29.98,South,188,0.0,1.0,100,0.00,,,0.00,weatherlink.com 1.10,2013-07-10 10:26:00,
2013-07-10 06:41:00,63.0,63.0,29.98,SE,145,0.0,1.0,100,0.00,,,0.00,weatherlink.com 1.10,2013-07-10 10:41:00,
2013-07-10 06:56:00,63.2,63.0,29.98,SW,235,0.0,1.0,100,0.00,,,0.00,weatherlink.com 1.10,2013-07-10 10:56:00,
2013-07-10 07:11:00,63.3,63.0,29.97,SE,134,0.0,1.0,100,0.00,,,0.00,weatherlink.com 1.10,2013-07-10 11:11:00,
2013-07-10 07:26:00,63.4,63.0,29.97,SW,226,0.0,1.0,100,0.00,,,0.00,weatherlink.com 1.10,2013-07-10 11:26:00,
2013-07-10 07:41:00,63.6,64.0,29.97,SW,222,0.0,1.0,100,0.00,,,0.00,weatherlink.com 1.10,2013-07-10 11:41:00,
2013-07-10 07:56:00,63.7,64.0,29.97,South,177,0.0,1.0,100,0.00,,,0.00,weatherlink.com 1.10,2013-07-10 11:56:00,
2013-07-10 08:11:00,63.7,64.0,29.97,South,186,0.0,1.0,100,0.02,,,0.02,weatherlink.com 1.10,2013-07-10 12:11:00,
2013-07-10 08:26:00,63.7,64.0,29.96,South,175,0.0,1.0,100,0.02,,,0.02,weatherlink.com 1.10,2013-07-10 12:26:00,
2013-07-10 08:41:00,63.6,64.0,29.96,SE,145,1.0,1.0,100,0.02,,,0.02,weatherlink.com 1.10,2013-07-10 12:41:00,
2013-07-10 08:56:00,63.8,64.0,29.95,SE,140,0.0,2.0,100,0.02,,,0.02,weatherlink.com 1.10,2013-07-10 12:56:00,
2013-07-10 09:11:00,63.9,64.0,29.95,SSW,197,0.0,1.0,100,0.00,,,0.02,weatherlink.com 1.10,2013-07-10 13:11:00,
2013-07-10 09:26:00,64.0,64.0,29.95,SSE,165,0.0,2.0,100,0.00,,,0.02,weatherlink.com 1.10,2013-07-10 13:26:00,
2013-07-10 09:41:00,64.0,64.0,29.95,SW,220,1.0,3.0,100,0.00,,,0.02,weatherlink.com 1.10,2013-07-10 13:41:00,
2013-07-10 09:56:00,63.9,64.0,29.94,SSE,162,1.0,2.0,100,0.00,,,0.02,weatherlink.com 1.10,2013-07-10 13:56:00,
2013-07-10 10:11:00,64.0,64.0,29.94,SE,138,0.0,2.0,100,0.01,,,0.03,weatherlink.com 1.10,2013-07-10 14:11:00,
2013-07-10 10:26:00,64.1,64.0,29.94,SE,138,0.0,5.0,100,0.01,,,0.03,weatherlink.com 1.10,2013-07-10 14:26:00,
2013-07-10 10:41:00,64.3,64.0,29.93,SSW,204,0.0,1.0,100,0.01,,,0.03,weatherlink.com 1.10,2013-07-10 14:41:00,
2013-07-10 10:56:00,64.6,65.0,29.93,SSE,148,0.0,2.0,100,0.01,,,0.03,weatherlink.com 1.10,2013-07-10 14:56:00,
2013-07-10 11:11:00,65.0,65.0,29.93,SE,145,0.0,1.0,100,0.00,,,0.03,weatherlink.com 1.10,2013-07-10 15:11:00,
2013-07-10 11:26:00,65.5,66.0,29.93,SSE,149,0.0,1.0,100,0.00,,,0.03,weatherlink.com 1.10,2013-07-10 15:26:00,
2013-07-10 11:41:00,65.9,66.0,29.92,SSE,155,0.0,1.0,100,0.00,,,0.03,weatherlink.com 1.10,2013-07-10 15:41:00,
2013-07-10 11:56:00,66.4,66.0,29.92,SSE,148,0.0,1.0,100,0.00,,,0.03,weatherlink.com 1.10,2013-07-10 15:56:00,
2013-07-10 12:11:00,66.6,67.0,29.91,SSE,165,0.0,2.0,100,0.00,,,0.03,weatherlink.com 1.10,2013-07-10 16:11:00,
2013-07-10 12:26:00,66.9,67.0,29.91,SE,138,1.0,1.0,100,0.00,,,0.03,weatherlink.com 1.10,2013-07-10 16:26:00,
2013-07-10 12:41:00,67.2,67.0,29.91,SE,139,0.0,1.0,100,0.00,,,0.03,weatherlink.com 1.10,2013-07-10 16:41:00,
2013-07-10 12:57:00,67.7,68.0,29.90,SE,138,0.0,1.0,100,0.00,,,0.03,weatherlink.com 1.10,2013-07-10 16:57:00,
2013-07-10 13:11:00,68.2,68.0,29.89,SSE,158,0.0,1.0,100,0.00,,,0.03,weatherlink.com 1.10,2013-07-10 17:11:00,
2013-07-10 13:27:00,69.1,69.0,29.88,SSE,161,1.0,2.0,100,0.00,,,0.03,weatherlink.com 1.10,2013-07-10 17:27:00,
2013-07-10 13:42:00,69.7,69.0,29.87,SE,129,1.0,1.0,99,0.00,,,0.03,weatherlink.com 1.10,2013-07-10 17:42:00,
2013-07-10 13:56:00,69.9,69.0,29.86,ESE,122,1.0,1.0,98,0.00,,,0.03,weatherlink.com 1.10,2013-07-10 17:56:00,
2013-07-10 14:11:00,70.4,70.0,29.85,SE,142,1.0,1.0,98,0.00,,,0.03,weatherlink.com 1.10,2013-07-10 18:11:00,
2013-07-10 14:27:00,71.2,70.0,29.84,SSW,203,0.0,1.0,97,0.00,,,0.03,weatherlink.com 1.10,2013-07-10 18:27:00,
2013-07-10 14:42:00,72.4,71.0,29.84,SE,140,1.0,2.0,95,0.00,,,0.03,weatherlink.com 1.10,2013-07-10 18:42:00,
2013-07-10 14:57:00,72.6,71.0,29.83,ESE,112,0.0,2.0,94,0.00,,,0.03,weatherlink.com 1.10,2013-07-10 18:57:00,
2013-07-10 15:12:00,73.2,71.0,29.82,SSW,194,0.0,2.0,94,0.00,,,0.03,weatherlink.com 1.10,2013-07-10 19:12:00,
2013-07-10 15:27:00,74.2,72.0,29.82,ESE,122,0.0,2.0,93,0.00,,,0.03,weatherlink.com 1.10,2013-07-10 19:27:00,
2013-07-10 15:42:00,74.5,72.0,29.81,SE,133,0.0,1.0,93,0.00,,,0.03,weatherlink.com 1.10,2013-07-10 19:42:00,
2013-07-10 15:57:00,74.9,73.0,29.80,SE,127,1.0,2.0,92,0.00,,,0.03,weatherlink.com 1.10,2013-07-10 19:57:00,
2013-07-10 16:12:00,74.3,72.0,29.80,ESE,122,0.0,2.0,93,0.00,,,0.03,weatherlink.com 1.10,2013-07-10 20:12:00,
2013-07-10 16:27:00,74.0,72.0,29.79,SE,127,0.0,2.0,94,0.00,,,0.03,weatherlink.com 1.10,2013-07-10 20:27:00,
2013-07-10 16:42:00,73.8,72.0,29.79,SSW,193,1.0,1.0,95,0.00,,,0.03,weatherlink.com 1.10,2013-07-10 20:42:00,
2013-07-10 16:57:00,73.3,72.0,29.79,SSW,197,0.0,1.0,97,0.05,,,0.08,weatherlink.com 1.10,2013-07-10 20:57:00,
2013-07-10 17:12:00,72.6,72.0,29.78,SE,127,0.0,1.0,98,0.18,,,0.21,weatherlink.com 1.10,2013-07-10 21:12:00,
2013-07-10 17:27:00,72.2,72.0,29.77,SSE,166,0.0,1.0,99,0.20,,,0.23,weatherlink.com 1.10,2013-07-10 21:27:00,
2013-07-10 17:42:00,72.0,72.0,29.76,SSE,156,0.0,1.0,100,0.28,,,0.31,weatherlink.com 1.10,2013-07-10 21:42:00,
2013-07-10 17:57:00,71.8,72.0,29.76,SSE,154,0.0,1.0,100,0.24,,,0.32,weatherlink.com 1.10,2013-07-10 21:57:00,
2013-07-10 18:12:00,71.8,72.0,29.76,SSE,153,0.0,1.0,100,0.11,,,0.32,weatherlink.com 1.10,2013-07-10 22:12:00,
2013-07-10 18:27:00,71.8,72.0,29.76,SSE,166,0.0,1.0,100,0.11,,,0.34,weatherlink.com 1.10,2013-07-10 22:27:00,
2013-07-10 18:42:00,72.0,72.0,29.77,SSE,160,2.0,3.0,100,0.04,,,0.35,weatherlink.com 1.10,2013-07-10 22:42:00,
2013-07-10 18:57:00,72.2,72.0,29.77,SSW,197,0.0,1.0,100,0.04,,,0.36,weatherlink.com 1.10,2013-07-10 22:57:00,
2013-07-10 19:12:00,72.1,72.0,29.76,SSW,197,0.0,0.0,100,0.04,,,0.00,weatherlink.com 1.10,2013-07-10 23:12:00,
2013-07-10 19:27:00,72.1,72.0,29.77,SSW,197,0.0,0.0,100,0.02,,,0.00,weatherlink.com 1.10,2013-07-10 23:27:00,
2013-07-10 19:42:00,72.1,72.0,29.76,SSW,197,0.0,0.0,100,0.01,,,0.00,weatherlink.com 1.10,2013-07-10 23:42:00,
2013-07-10 19:57:00,72.1,72.0,29.76,SSW,197,0.0,0.0,100,0.00,,,0.00,weatherlink.com 1.10,2013-07-10 23:57:00,
2013-07-10 20:12:00,72.0,72.0,29.77,SSW,197,0.0,0.0,100,0.00,,,0.00,weatherlink.com 1.10,2013-07-11 00:12:00,
2013-07-10 20:27:00,71.8,72.0,29.77,SSW,197,0.0,0.0,100,0.00,,,0.00,weatherlink.com 1.10,2013-07-11 00:27:00,
2013-07-10 20:42:00,71.8,72.0,29.76,SSW,197,0.0,1.0,100,0.00,,,0.00,weatherlink.com 1.10,2013-07-11 00:42:00,
2013-07-10 20:57:00,71.6,72.0,29.76,SSW,197,0.0,0.0,100,0.00,,,0.00,weatherlink.com 1.10,2013-07-11 00:57:00,
2013-07-10 21:12:00,71.6,72.0,29.75,SSW,197,0.0,0.0,100,0.00,,,0.00,weatherlink.com 1.10,2013-07-11 01:12:00,
2013-07-10 21:27:00,71.6,72.0,29.76,SSW,197,0.0,0.0,100,0.00,,,0.00,weatherlink.com 1.10,2013-07-11 01:27:00,
2013-07-10 21:42:00,71.8,72.0,29.76,SSW,198,0.0,1.0,100,0.00,,,0.00,weatherlink.com 1.10,2013-07-11 01:42:00,
2013-07-10 21:57:00,72.3,72.0,29.77,ESE,110,0.0,1.0,100,0.00,,,0.00,weatherlink.com 1.10,2013-07-11 01:57:00,
2013-07-10 22:12:00,72.7,73.0,29.77,South,176,0.0,1.0,100,0.00,,,0.00,weatherlink.com 1.10,2013-07-11 02:12:00,
2013-07-10 22:27:00,72.9,73.0,29.76,SE,141,0.0,2.0,100,0.00,,,0.00,weatherlink.com 1.10,2013-07-11 02:27:00,
2013-07-10 22:42:00,72.9,73.0,29.76,SSE,165,0.0,1.0,100,0.00,,,0.00,weatherlink.com 1.10,2013-07-11 02:42:00,
2013-07-10 22:57:00,72.9,73.0,29.76,ESE,117,0.0,1.0,100,0.00,,,0.00,weatherlink.com 1.10,2013-07-11 02:57:00,
2013-07-10 23:12:00,72.8,73.0,29.75,ESE,117,0.0,1.0,100,0.00,,,0.00,weatherlink.com 1.10,2013-07-11 03:12:00,
2013-07-10 23:27:00,72.7,73.0,29.75,South,174,0.0,2.0,100,0.00,,,0.00,weatherlink.com 1.10,2013-07-11 03:27:00,
2013-07-10 23:42:00,72.5,73.0,29.75,South,173,0.0,1.0,100,0.00,,,0.00,weatherlink.com 1.10,2013-07-11 03:42:00,
2013-07-10 23:57:00,72.5,73.0,29.75,SSE,148,0.0,1.0,100,0.00,,,0.00,weatherlink.com 1.10,2013-07-11 03:57:00,